Time;durP1;ratioP1;P1;durP2;ratioP2;P2;SDS_P1;SDS_P2;PMS_P1;PMS_P2;Temp;Humidity;BMP_temperature;BMP_pressure;BME280_temperature;BME280_humidity;BME280_pressure;Samples;Min_cycle;Max_cycle;Signal;HPM_P1;HPM_P2
2020/12/03 00:01:02;;;;;;;27.60;15.20;;;1.80;50.50;;;;;;5102438;28;38476;-81
2020/12/03 00:03:37;;;;;;;27.90;16.13;;;1.70;50.80;;;;;;5092633;28;38825;-80
2020/12/03 00:06:15;;;;;;;34.90;16.87;;;1.70;50.50;;;;;;5087758;28;38914;-80
2020/12/03 00:08:58;;;;;;;28.87;17.27;;;1.70;51.00;;;;;;5093365;28;40164;-81
2020/12/03 00:11:32;;;;;;;38.37;17.80;;;1.70;51.00;;;;;;5070423;28;39146;-80
2020/12/03 00:14:13;;;;;;;;;;;;;;;;;;;;;
2020/12/03 00:16:58;;;;;;;35.57;18.23;;;1.70;51.30;;;;;;5090886;28;39903;-80
2020/12/03 00:19:33;;;;;;;34.00;18.43;;;1.70;51.30;;;;;;5097056;28;41085;-81
2020/12/03 00:22:04;;;;;;;31.23;17.43;;;1.70;51.40;;;;;;5093737;28;39396;-81
2020/12/03 00:24:38;;;;;;;34.20;17.27;;;1.70;51.60;;;;;;5092343;28;37395;-82
2020/12/03 00:27:13;;;;;;;32.30;16.00;;;1.80;51.70;;;;;;5086533;28;36327;-82
2020/12/03 00:29:45;;;;;;;30.97;17.03;;;1.80;51.40;;;;;;5091281;28;41193;-81
2020/12/03 00:32:20;;;;;;;35.50;18.47;;;1.80;51.30;;;;;;5101279;28;38455;-81
2020/12/03 00:34:47;;;;;;;32.40;17.23;;;1.80;51.30;;;;;;5094070;28;38442;-82
2020/12/03 00:37:16;;;;;;;32.07;17.13;;;1.80;51.20;;;;;;5105925;28;36935;-81
2020/12/03 00:39:49;;;;;;;32.23;17.80;;;1.80;51.30;;;;;;5092072;28;39624;-81
2020/12/03 00:42:24;;;;;;;30.90;17.47;;;1.80;51.40;;;;;;5099345;28;38468;-82
2020/12/03 00:44:53;;;;;;;32.07;17.40;;;1.80;51.30;;;;;;5086184;28;38162;-82
2020/12/03 00:47:21;;;;;;;37.00;17.80;;;1.80;51.20;;;;;;5078062;28;36892;-81
2020/12/03 00:49:50;;;;;;;31.23;17.17;;;1.80;51.20;;;;;;5096205;28;39063;-82
2020/12/03 00:52:19;;;;;;;30.37;15.53;;;1.80;51.30;;;;;;5088022;28;38139;-81
2020/12/03 00:54:47;;;;;;;32.13;17.50;;;1.80;51.50;;;;;;5090545;28;37455;-82
2020/12/03 00:57:18;;;;;;;29.50;16.43;;;1.80;51.70;;;;;;5097969;28;38772;-82
2020/12/03 00:59:47;;;;;;;26.53;15.77;;;1.80;51.70;;;;;;5091780;28;39905;-80
2020/12/03 01:05:08;;;;;;;34.13;17.43;;;1.70;51.50;;;;;;5080488;28;37928;-81
2020/12/03 01:07:44;;;;;;;31.20;16.90;;;1.70;51.60;;;;;;5090825;28;37356;-81
2020/12/03 01:10:25;;;;;;;32.63;18.00;;;1.70;51.60;;;;;;5093998;28;40825;-81
2020/12/03 01:12:54;;;;;;;33.23;17.00;;;1.70;51.60;;;;;;5084705;28;42224;-81
2020/12/03 01:15:28;;;;;;;32.77;17.00;;;1.70;51.60;;;;;;5080603;28;36909;-81
2020/12/03 01:18:00;;;;;;;31.53;17.20;;;1.70;51.60;;;;;;5081645;28;37924;-80
2020/12/03 01:20:34;;;;;;;27.50;16.00;;;1.80;51.70;;;;;;5086713;28;40125;-81
2020/12/03 01:23:04;;;;;;;30.30;17.03;;;1.70;51.60;;;;;;5073959;28;39307;-81
2020/12/03 01:25:35;;;;;;;32.20;16.73;;;1.70;51.60;;;;;;5079315;28;37939;-81
2020/12/03 01:28:17;;;;;;;34.20;17.70;;;1.70;51.60;;;;;;5081694;28;37094;-81
2020/12/03 01:30:44;;;;;;;34.07;16.90;;;1.60;51.50;;;;;;5091640;28;39974;-81
2020/12/03 01:33:11;;;;;;;28.73;15.57;;;1.60;51.50;;;;;;5067492;28;40566;-80
2020/12/03 01:35:38;;;;;;;28.60;16.33;;;1.60;51.50;;;;;;5070899;28;38970;-80
2020/12/03 01:38:07;;;;;;;34.87;18.47;;;1.60;51.60;;;;;;5060209;28;38256;-80
2020/12/03 01:40:34;;;;;;;32.67;17.30;;;1.60;52.00;;;;;;5066859;28;39672;-81
2020/12/03 01:43:01;;;;;;;35.17;18.97;;;1.60;51.90;;;;;;5068257;28;39358;-80
2020/12/03 01:45:55;;;;;;;30.27;16.30;;;1.60;52.00;;;;;;5070437;28;38008;-80
2020/12/03 01:48:31;;;;;;;35.77;18.10;;;1.60;52.00;;;;;;5053964;28;37630;-80
2020/12/03 01:51:00;;;;;;;32.33;15.80;;;1.60;52.00;;;;;;5071939;28;39904;-80
2020/12/03 01:53:30;;;;;;;34.37;18.60;;;1.50;52.00;;;;;;5068495;28;37911;-80
2020/12/03 01:55:57;;;;;;;31.77;18.00;;;1.50;52.10;;;;;;5066672;28;38044;-80
2020/12/03 01:58:38;;;;;;;31.40;16.50;;;1.50;52.10;;;;;;5058267;28;36561;-80
2020/12/03 02:01:07;;;;;;;28.53;16.13;;;1.50;52.40;;;;;;5055774;28;39014;-80
2020/12/03 02:03:34;;;;;;;35.30;16.60;;;1.40;52.50;;;;;;5057149;28;38080;-80
2020/12/03 02:06:01;;;;;;;31.20;16.77;;;1.50;52.70;;;;;;5072292;28;37992;-80
2020/12/03 02:08:27;;;;;;;33.60;16.97;;;1.40;52.90;;;;;;5066588;28;37196;-80
2020/12/03 02:10:55;;;;;;;34.03;16.87;;;1.40;52.80;;;;;;5066009;28;39389;-80
2020/12/03 02:13:22;;;;;;;38.30;18.00;;;1.40;52.80;;;;;;5055387;28;39174;-80
2020/12/03 02:15:50;;;;;;;32.50;17.50;;;1.40;53.10;;;;;;5059597;28;38490;-80
2020/12/03 02:18:20;;;;;;;32.63;17.17;;;1.30;53.10;;;;;;5061407;28;37329;-80
2020/12/03 02:20:47;;;;;;;31.17;16.80;;;1.30;53.40;;;;;;5061089;28;39876;-79
2020/12/03 02:23:17;;;;;;;32.30;16.63;;;1.30;53.40;;;;;;5081339;28;38451;-80
2020/12/03 02:25:45;;;;;;;31.67;18.40;;;1.40;53.40;;;;;;5076387;28;38538;-80
2020/12/03 02:28:13;;;;;;;35.17;18.63;;;1.40;53.70;;;;;;5067898;28;20971;-79
2020/12/03 02:30:42;;;;;;;35.07;18.30;;;1.40;53.80;;;;;;5084009;28;40068;-80
2020/12/03 02:33:09;;;;;;;32.03;16.93;;;1.50;53.60;;;;;;5071348;28;38164;-80
2020/12/03 02:35:36;;;;;;;33.13;18.47;;;1.50;53.50;;;;;;5075189;28;37492;-80
2020/12/03 02:38:04;;;;;;;33.00;16.17;;;1.40;53.50;;;;;;5079420;28;37863;-81
2020/12/03 02:40:31;;;;;;;34.77;18.27;;;1.50;53.50;;;;;;5079093;28;40016;-80
2020/12/03 02:42:58;;;;;;;35.87;17.53;;;1.40;53.20;;;;;;5066256;28;39497;-79
2020/12/03 02:45:27;;;;;;;36.70;18.43;;;1.50;53.60;;;;;;5055076;28;37868;-80
2020/12/03 02:47:54;;;;;;;31.33;16.37;;;1.40;53.40;;;;;;5054753;28;36084;-81
2020/12/03 02:50:21;;;;;;;32.20;17.70;;;1.40;53.50;;;;;;5069201;28;40394;-81
2020/12/03 02:52:48;;;;;;;31.50;16.93;;;1.50;53.70;;;;;;5064285;28;38844;-81
2020/12/03 02:55:16;;;;;;;29.87;17.00;;;1.40;53.60;;;;;;5057618;28;37459;-81
2020/12/03 02:57:43;;;;;;;33.57;18.43;;;1.30;53.70;;;;;;5068205;28;36429;-82
2020/12/03 03:00:10;;;;;;;36.80;19.00;;;1.30;53.80;;;;;;5073842;28;40147;-81
2020/12/03 03:02:37;;;;;;;36.30;18.10;;;1.30;53.90;;;;;;5062144;28;38978;-80
2020/12/03 03:05:04;;;;;;;33.60;19.00;;;1.30;53.70;;;;;;5064328;28;38940;-81
2020/12/03 03:07:32;;;;;;;37.27;17.50;;;1.30;53.90;;;;;;5066482;28;37524;-81
2020/12/03 03:10:01;;;;;;;36.30;17.67;;;1.30;53.90;;;;;;5065926;28;39668;-80
2020/12/03 03:12:29;;;;;;;34.00;18.47;;;1.30;53.90;;;;;;5059896;28;39944;-81
2020/12/03 03:14:56;;;;;;;31.17;17.20;;;1.30;53.80;;;;;;5075529;28;38084;-81
2020/12/03 03:17:23;;;;;;;32.20;17.63;;;1.30;54.10;;;;;;5059991;28;37701;-81
2020/12/03 03:19:50;;;;;;;39.50;17.77;;;1.30;54.10;;;;;;5058277;28;39170;-81
2020/12/03 03:22:17;;;;;;;34.27;16.83;;;1.40;54.10;;;;;;5074477;28;37809;-81
2020/12/03 03:24:44;;;;;;;35.50;17.13;;;1.40;54.80;;;;;;5067102;28;37506;-81
2020/12/03 03:27:11;;;;;;;33.97;18.40;;;1.40;54.10;;;;;;5070303;28;38210;-80
2020/12/03 03:29:39;;;;;;;36.83;18.80;;;1.40;54.10;;;;;;5066620;28;39813;-80
2020/12/03 03:32:06;;;;;;;37.03;18.83;;;1.50;54.20;;;;;;5074928;28;40083;-80
2020/12/03 03:34:33;;;;;;;29.60;16.27;;;1.50;54.20;;;;;;5059584;28;37951;-80
2020/12/03 03:37:00;;;;;;;36.17;19.23;;;1.50;54.20;;;;;;5059854;28;36242;-79
2020/12/03 03:39:27;;;;;;;37.87;19.20;;;1.50;54.20;;;;;;5057929;28;39979;-80
2020/12/03 03:41:56;;;;;;;33.60;17.20;;;1.50;54.00;;;;;;5067093;28;39248;-80
2020/12/03 03:44:23;;;;;;;34.80;18.20;;;1.50;54.10;;;;;;5073653;28;36885;-80
2020/12/03 03:46:51;;;;;;;35.43;17.70;;;1.60;53.90;;;;;;5076592;28;37173;-80
2020/12/03 03:49:18;;;;;;;32.80;17.17;;;1.60;53.90;;;;;;5072614;28;40660;-80
2020/12/03 03:51:45;;;;;;;38.20;18.60;;;1.60;53.80;;;;;;5074018;28;37899;-80
2020/12/03 03:54:12;;;;;;;33.63;17.43;;;1.60;53.80;;;;;;5073478;28;38298;-80
2020/12/03 03:56:39;;;;;;;29.67;17.20;;;1.70;53.90;;;;;;5056911;28;37403;-80
2020/12/03 03:59:06;;;;;;;34.57;18.40;;;1.70;53.80;;;;;;5059730;28;38497;-80
2020/12/03 04:01:33;;;;;;;31.00;17.63;;;1.70;53.80;;;;;;5057081;28;38045;-80
2020/12/03 04:04:01;;;;;;;32.70;17.33;;;1.70;53.70;;;;;;5064449;28;38792;-80
2020/12/03 04:06:28;;;;;;;33.40;17.20;;;1.80;53.80;;;;;;5073533;28;37056;-81
2020/12/03 04:08:55;;;;;;;29.87;15.67;;;1.80;53.70;;;;;;5067961;28;39729;-80
2020/12/03 04:11:22;;;;;;;32.63;17.07;;;1.90;53.60;;;;;;5076196;28;39336;-81
2020/12/03 04:13:49;;;;;;;30.07;16.57;;;1.90;53.60;;;;;;5074654;28;36737;-81
2020/12/03 04:16:18;;;;;;;32.43;17.37;;;1.90;53.50;;;;;;5074927;28;37963;-81
2020/12/03 04:18:45;;;;;;;27.40;16.57;;;1.90;53.50;;;;;;5074213;28;40264;-81
2020/12/03 04:21:16;;;;;;;27.93;16.57;;;1.80;53.30;;;;;;5055919;28;40261;-81
2020/12/03 04:23:43;;;;;;;34.57;17.20;;;1.80;53.30;;;;;;5065881;28;37191;-80
2020/12/03 04:26:12;;;;;;;33.50;17.30;;;1.80;53.30;;;;;;5074803;28;36921;-80
2020/12/03 04:28:39;;;;;;;31.00;16.70;;;1.70;53.40;;;;;;5076038;28;39403;-81
2020/12/03 04:31:07;;;;;;;35.50;18.63;;;1.70;53.50;;;;;;5063579;28;38246;-81
2020/12/03 04:33:34;;;;;;;30.70;16.80;;;1.70;53.60;;;;;;5054828;28;37332;-81
2020/12/03 04:36:01;;;;;;;35.33;18.37;;;1.70;53.60;;;;;;5058929;28;38113;-81
2020/12/03 04:38:29;;;;;;;32.40;16.60;;;1.80;53.80;;;;;;5071439;28;39851;-81
2020/12/03 04:40:56;;;;;;;33.17;18.07;;;1.80;53.80;;;;;;5075795;28;39122;-81
2020/12/03 04:43:31;;;;;;;35.60;17.63;;;1.80;53.90;;;;;;5064349;28;38913;-81
2020/12/03 04:46:04;;;;;;;30.80;16.40;;;1.90;53.80;;;;;;5056265;28;37880;-81
2020/12/03 04:48:56;;;;;;;31.47;18.60;;;1.90;53.70;;;;;;5063654;28;39896;-81
2020/12/03 04:51:38;;;;;;;31.90;15.80;;;1.90;53.70;;;;;;5063195;28;39486;-80
2020/12/03 04:54:22;;;;;;;28.07;15.17;;;1.90;53.60;;;;;;5073373;28;37918;-80
2020/12/03 04:56:57;;;;;;;33.33;17.97;;;1.90;53.70;;;;;;5069063;28;37204;-82
2020/12/03 04:59:36;;;;;;;32.03;15.87;;;1.90;53.50;;;;;;5064740;28;39438;-82
2020/12/03 05:02:21;;;;;;;33.10;17.07;;;1.90;54.40;;;;;;5065465;28;38332;-80
2020/12/03 05:04:57;;;;;;;29.27;15.53;;;1.90;53.70;;;;;;5054553;28;39056;-80
2020/12/03 05:07:28;;;;;;;32.07;17.27;;;1.90;53.80;;;;;;5061189;28;36163;-80
2020/12/03 05:10:01;;;;;;;33.03;16.57;;;2.00;53.90;;;;;;5072097;28;39685;-80
2020/12/03 05:12:31;;;;;;;30.43;15.13;;;2.00;53.90;;;;;;5071892;28;38226;-80
2020/12/03 05:15:05;;;;;;;29.10;16.07;;;2.00;53.80;;;;;;5061400;28;37786;-80
2020/12/03 05:18:02;;;;;;;32.00;17.20;;;2.10;53.70;;;;;;5073238;28;37462;-80
2020/12/03 05:20:40;;;;;;;30.07;17.23;;;2.10;53.60;;;;;;5060120;28;39859;-80
2020/12/03 05:23:15;;;;;;;32.20;16.57;;;2.10;53.70;;;;;;5065337;28;39153;-80
2020/12/03 05:25:44;;;;;;;31.87;17.47;;;2.00;53.70;;;;;;5055436;28;38619;-80
2020/12/03 05:28:31;;;;;;;31.60;18.00;;;1.90;53.90;;;;;;5069811;28;38382;-80
2020/12/03 05:31:11;;;;;;;29.53;15.60;;;2.00;53.80;;;;;;5059022;28;39176;-80
2020/12/03 05:33:38;;;;;;;30.97;18.37;;;1.90;53.80;;;;;;5066327;28;39090;-81
2020/12/03 05:36:22;;;;;;;28.97;15.67;;;1.90;53.90;;;;;;5054825;28;38855;-81
2020/12/03 05:38:50;;;;;;;32.43;16.47;;;2.00;54.00;;;;;;5055886;28;37787;-81
2020/12/03 05:41:19;;;;;;;30.90;17.33;;;2.00;54.00;;;;;;5062817;28;40538;-81
2020/12/03 05:43:46;;;;;;;36.50;18.07;;;2.10;54.10;;;;;;5055307;28;39257;-81
2020/12/03 05:46:19;;;;;;;34.50;18.63;;;2.00;54.10;;;;;;5069393;28;37901;-81
2020/12/03 05:48:57;;;;;;;33.07;18.90;;;2.10;54.10;;;;;;5058483;28;37978;-80
2020/12/03 05:51:26;;;;;;;31.80;18.10;;;2.10;54.10;;;;;;5073285;28;40487;-80
2020/12/03 05:53:57;;;;;;;32.50;18.00;;;2.10;54.10;;;;;;5072950;28;39797;-80
2020/12/03 05:56:26;;;;;;;34.10;17.17;;;2.10;54.10;;;;;;5055179;28;37626;-80
2020/12/03 05:58:53;;;;;;;29.57;16.83;;;2.10;54.10;;;;;;5054315;28;37020;-80
2020/12/03 06:01:22;;;;;;;33.80;17.13;;;2.20;54.10;;;;;;5045719;28;38381;-80
2020/12/03 06:04:05;;;;;;;32.83;17.97;;;2.20;54.10;;;;;;5070525;28;37619;-81
2020/12/03 06:07:17;;;;;;;31.53;17.10;;;2.20;54.10;;;;;;5053978;28;38248;-81
2020/12/03 06:10:25;;;;;;;27.07;15.30;;;2.10;53.90;;;;;;5052174;28;38297;-82
2020/12/03 06:13:16;;;;;;;36.53;18.60;;;2.10;54.00;;;;;;5056406;28;38468;-80
2020/12/03 06:15:48;;;;;;;29.37;16.60;;;2.10;54.10;;;;;;5062948;28;37572;-80
2020/12/03 06:18:44;;;;;;;34.30;17.00;;;2.10;54.20;;;;;;5054625;28;36841;-80
2020/12/03 06:21:27;;;;;;;33.70;16.80;;;2.10;54.30;;;;;;5071410;28;37642;-80
2020/12/03 06:24:05;;;;;;;27.73;15.00;;;2.20;54.30;;;;;;5071433;28;38456;-81
2020/12/03 06:26:49;;;;;;;29.97;16.40;;;2.10;54.20;;;;;;5069755;28;39699;-80
2020/12/03 06:29:46;;;;;;;33.77;17.73;;;2.20;54.40;;;;;;5063756;28;38499;-81
2020/12/03 06:32:59;;;;;;;25.93;15.17;;;2.10;54.50;;;;;;5072674;28;37715;-80
2020/12/03 06:35:38;;;;;;;29.00;15.40;;;2.20;54.70;;;;;;4988267;28;38421;-80
2020/12/03 06:38:25;;;;;;;27.30;14.70;;;2.20;54.70;;;;;;5057836;28;38465;-80
2020/12/03 06:41:02;;;;;;;29.50;16.20;;;2.20;54.70;;;;;;5066806;28;38973;-80
2020/12/03 06:43:35;;;;;;;28.03;15.87;;;2.20;54.80;;;;;;5053722;28;36390;-80
2020/12/03 06:46:32;;;;;;;27.80;15.10;;;2.20;54.90;;;;;;5049941;28;39641;-80
2020/12/03 06:49:36;;;;;;;23.40;14.30;;;2.20;54.90;;;;;;5051017;28;39043;-80
2020/12/03 06:52:30;;;;;;;27.43;16.27;;;2.20;55.00;;;;;;5060263;28;37300;-80
2020/12/03 06:55:31;;;;;;;29.90;16.70;;;2.20;54.90;;;;;;5064563;28;37118;-80
2020/12/03 06:58:28;;;;;;;29.10;16.20;;;2.20;55.00;;;;;;5060961;28;40464;-81
2020/12/03 07:01:43;;;;;;;23.77;14.00;;;2.20;54.90;;;;;;5048423;28;39776;-80
2020/12/03 07:04:44;;;;;;;26.60;14.47;;;2.20;55.00;;;;;;5081549;28;36928;-82
2020/12/03 07:07:50;;;;;;;26.57;14.23;;;2.20;55.00;;;;;;5060876;28;36425;-83
2020/12/03 07:10:44;;;;;;;24.90;15.43;;;2.30;55.00;;;;;;5054044;28;40710;-82
2020/12/03 07:13:55;;;;;;;26.20;13.83;;;2.20;55.00;;;;;;5064325;28;38007;-82
2020/12/03 07:17:05;;;;;;;23.20;13.90;;;2.30;55.10;;;;;;5005149;28;38138;-82
2020/12/03 07:20:06;;;;;;;23.10;14.00;;;2.20;55.10;;;;;;5052060;28;38064;-82
2020/12/03 07:22:37;;;;;;;22.30;14.50;;;2.30;55.20;;;;;;5052928;28;40208;-83
2020/12/03 07:25:07;;;;;;;21.83;12.50;;;2.30;55.10;;;;;;5061080;28;38784;-82
2020/12/03 07:28:01;;;;;;;20.43;12.70;;;2.40;55.00;;;;;;5072409;28;37285;-82
2020/12/03 07:30:41;;;;;;;18.73;12.10;;;2.40;54.70;;;;;;5059725;28;36419;-83
2020/12/03 07:33:19;;;;;;;20.37;11.17;;;2.40;54.60;;;;;;5059027;28;40600;-84
2020/12/03 07:35:54;;;;;;;24.03;13.40;;;2.40;54.60;;;;;;5074553;28;40005;-84
2020/12/03 07:38:29;;;;;;;21.10;12.00;;;2.50;54.60;;;;;;5086265;28;38253;-80
2020/12/03 07:40:57;;;;;;;25.27;13.30;;;2.50;54.30;;;;;;5087639;28;36292;-80
2020/12/03 07:43:31;;;;;;;21.17;13.40;;;2.50;54.00;;;;;;5059493;28;38996;-79
2020/12/03 07:45:58;;;;;;;21.40;13.20;;;2.60;54.00;;;;;;5067377;28;38138;-79
2020/12/03 07:48:46;;;;;;;19.10;12.00;;;2.60;54.20;;;;;;5072677;28;39022;-82
2020/12/03 07:51:15;;;;;;;18.87;11.73;;;2.70;54.10;;;;;;5054172;28;38211;-79
2020/12/03 07:53:44;;;;;;;23.43;12.43;;;2.70;53.70;;;;;;5066583;28;39961;-79
2020/12/03 07:56:44;;;;;;;17.47;10.10;;;2.80;53.70;;;;;;5064457;28;39017;-79
2020/12/03 07:59:37;;;;;;;14.90;9.83;;;2.70;52.50;;;;;;4979869;28;38879;-79
2020/12/03 08:02:38;;;;;;;13.07;9.27;;;2.70;52.40;;;;;;5059053;28;38088;-80
2020/12/03 08:05:35;;;;;;;14.87;9.13;;;2.70;52.50;;;;;;5027816;28;39533;-79
2020/12/03 08:08:05;;;;;;;11.33;8.17;;;2.60;51.90;;;;;;5010317;28;38045;-80
2020/12/03 08:10:36;;;;;;;12.23;8.90;;;2.70;51.80;;;;;;5047173;28;38079;-80
2020/12/03 08:13:22;;;;;;;21.37;10.50;;;2.70;51.90;;;;;;5069534;28;37040;-82
2020/12/03 08:15:57;;;;;;;19.17;12.23;;;2.80;51.80;;;;;;5059064;28;39602;-81
2020/12/03 08:18:39;;;;;;;12.33;8.87;;;2.90;52.00;;;;;;5069463;28;39025;-81
2020/12/03 08:21:08;;;;;;;17.40;9.03;;;3.00;51.50;;;;;;5069752;28;38937;-81
2020/12/03 08:23:35;;;;;;;10.43;7.17;;;3.00;51.30;;;;;;5074018;28;36732;-81
2020/12/03 08:26:05;;;;;;;10.63;7.70;;;3.00;50.40;;;;;;5067879;28;39740;-81
2020/12/03 08:28:33;;;;;;;12.20;7.80;;;3.00;50.40;;;;;;5073374;28;40472;-81
2020/12/03 08:31:00;;;;;;;9.40;6.93;;;2.90;50.10;;;;;;5069645;28;38282;-80
2020/12/03 08:33:32;;;;;;;9.93;7.13;;;2.80;50.10;;;;;;5062146;28;38320;-80
2020/12/03 08:36:01;;;;;;;12.70;7.70;;;2.80;50.10;;;;;;5083348;28;40353;-80
2020/12/03 08:38:32;;;;;;;12.37;7.47;;;2.80;50.00;;;;;;5083440;28;39355;-79
2020/12/03 08:41:02;;;;;;;15.13;7.90;;;2.90;49.90;;;;;;5069539;28;37164;-80
2020/12/03 08:43:31;;;;;;;11.13;7.20;;;3.00;49.90;;;;;;5075089;28;37221;-80
2020/12/03 08:46:02;;;;;;;10.97;7.87;;;3.00;49.90;;;;;;5084627;28;40763;-80
2020/12/03 08:48:33;;;;;;;11.97;7.87;;;2.90;49.80;;;;;;5083259;28;38986;-80
2020/12/03 08:51:03;;;;;;;11.47;7.80;;;2.90;49.70;;;;;;5065715;28;38305;-80
2020/12/03 08:53:32;;;;;;;16.10;9.43;;;2.70;49.80;;;;;;5064904;28;37414;-80
2020/12/03 08:56:25;;;;;;;13.50;8.30;;;2.70;50.10;;;;;;5059995;28;40019;-79
2020/12/03 08:59:11;;;;;;;11.37;8.10;;;2.80;50.00;;;;;;5079122;28;39007;-80
2020/12/03 09:01:42;;;;;;;10.57;7.80;;;2.70;49.80;;;;;;5071271;28;37975;-80
2020/12/03 09:04:10;;;;;;;12.57;7.70;;;2.70;49.90;;;;;;5079409;28;36186;-80
2020/12/03 09:06:47;;;;;;;9.53;6.97;;;2.70;49.30;;;;;;5069307;28;39276;-80
2020/12/03 09:09:20;;;;;;;11.67;8.27;;;2.70;49.40;;;;;;5069258;28;39073;-81
2020/12/03 09:11:48;;;;;;;9.73;7.60;;;2.80;49.10;;;;;;5064298;28;38137;-81
2020/12/03 09:14:16;;;;;;;10.63;8.53;;;2.70;48.90;;;;;;5065273;28;38047;-81
2020/12/03 09:16:46;;;;;;;14.37;7.93;;;2.70;49.00;;;;;;5072144;28;40330;-81
2020/12/03 09:19:22;;;;;;;9.53;8.07;;;2.80;49.20;;;;;;5073534;28;39769;-81
2020/12/03 09:21:51;;;;;;;10.87;7.37;;;2.80;48.80;;;;;;5058374;28;36882;-81
2020/12/03 09:24:22;;;;;;;11.87;7.40;;;2.80;48.70;;;;;;5060691;28;36278;-81
2020/12/03 09:26:50;;;;;;;11.60;7.47;;;2.80;48.30;;;;;;5063532;28;39412;-81
2020/12/03 09:29:19;;;;;;;10.67;7.43;;;2.90;48.40;;;;;;5059144;28;39196;-81
2020/12/03 09:31:47;;;;;;;10.17;7.20;;;2.90;48.10;;;;;;5057265;28;38200;-81
2020/12/03 09:34:16;;;;;;;17.97;11.60;;;3.00;47.50;;;;;;5061019;28;37018;-81
2020/12/03 09:36:44;;;;;;;18.63;10.30;;;3.10;47.20;;;;;;5068270;28;40720;-82
2020/12/03 09:39:12;;;;;;;18.10;12.70;;;3.20;46.90;;;;;;5065281;28;39247;-81
2020/12/03 09:41:45;;;;;;;25.83;15.87;;;3.40;46.20;;;;;;5070996;28;38720;-81
2020/12/03 09:44:15;;;;;;;13.47;9.30;;;3.50;46.20;;;;;;5069088;28;35543;-81
2020/12/03 09:46:47;;;;;;;13.20;9.23;;;3.50;45.90;;;;;;5063218;28;38962;-81
2020/12/03 09:49:17;;;;;;;11.77;8.43;;;3.50;45.70;;;;;;5061853;28;37990;-81
2020/12/03 09:51:45;;;;;;;8.23;6.50;;;3.60;45.70;;;;;;5067499;28;36731;-80
2020/12/03 09:54:13;;;;;;;11.17;8.77;;;3.50;45.40;;;;;;5068568;28;37303;-81
2020/12/03 09:56:40;;;;;;;10.43;7.80;;;3.50;45.70;;;;;;5073348;28;39879;-81
2020/12/03 09:59:08;;;;;;;9.27;7.30;;;3.40;45.90;;;;;;5072601;28;39648;-80
2020/12/03 10:02:01;;;;;;;9.43;7.10;;;3.30;45.20;;;;;;5069698;28;37815;-81
2020/12/03 10:04:54;;;;;;;9.50;6.70;;;3.30;44.80;;;;;;5073644;28;37200;-81
2020/12/03 10:07:44;;;;;;;8.73;6.50;;;3.40;45.10;;;;;;5062533;28;38457;-81
2020/12/03 10:10:19;;;;;;;8.07;6.23;;;3.50;44.20;;;;;;5075597;28;38881;-79
2020/12/03 10:13:09;;;;;;;10.70;7.50;;;3.50;44.60;;;;;;5067410;28;37652;-82
2020/12/03 10:15:59;;;;;;;10.37;6.60;;;3.60;44.20;;;;;;5059382;28;37796;-80
2020/12/03 10:18:44;;;;;;;9.70;5.97;;;3.60;43.60;;;;;;5063581;28;38585;-80
2020/12/03 10:21:16;;;;;;;7.10;5.07;;;3.80;43.00;;;;;;5058479;28;38239;-81
2020/12/03 10:23:50;;;;;;;7.50;4.53;;;4.10;42.40;;;;;;5061167;28;37012;-81
2020/12/03 10:26:31;;;;;;;5.00;4.20;;;4.30;41.70;;;;;;5070664;28;37617;-81
2020/12/03 10:29:29;;;;;;;9.03;4.40;;;4.50;40.70;;;;;;5062236;28;40012;-80
2020/12/03 10:31:59;;;;;;;6.67;4.60;;;4.60;40.10;;;;;;5066267;28;38448;-80
2020/12/03 10:34:27;;;;;;;6.03;4.83;;;4.70;40.00;;;;;;5068393;28;38150;-82
2020/12/03 10:36:59;;;;;;;8.03;5.13;;;4.70;39.80;;;;;;5065309;28;37043;-83
2020/12/03 10:39:39;;;;;;;12.60;5.77;;;4.80;40.00;;;;;;5068012;28;40557;-82
2020/12/03 10:42:10;;;;;;;9.30;4.07;;;4.80;39.30;;;;;;5071180;28;38930;-85
2020/12/03 10:44:41;;;;;;;5.57;3.83;;;4.90;38.20;;;;;;5066543;28;38428;-82
2020/12/03 10:47:13;;;;;;;9.50;4.93;;;4.90;38.40;;;;;;5067368;28;36988;-83
2020/12/03 10:49:58;;;;;;;7.27;5.20;;;4.80;38.50;;;;;;5071901;28;39644;-83
2020/12/03 10:52:28;;;;;;;6.70;4.33;;;4.70;38.30;;;;;;5056788;28;39412;-82
2020/12/03 10:55:02;;;;;;;6.33;4.37;;;4.70;37.20;;;;;;5065569;28;38964;-82
2020/12/03 10:57:33;;;;;;;6.73;4.93;;;4.40;37.00;;;;;;5070548;28;36828;-82
2020/12/03 11:00:02;;;;;;;9.23;4.97;;;4.30;38.00;;;;;;5080961;28;39355;-82
2020/12/03 11:02:36;;;;;;;8.90;4.83;;;4.50;38.10;;;;;;5069836;28;40038;-81
2020/12/03 11:05:08;;;;;;;8.17;5.13;;;4.60;38.00;;;;;;5072775;28;39569;-82
2020/12/03 11:07:37;;;;;;;16.00;5.70;;;4.80;38.20;;;;;;5070829;28;37144;-82
2020/12/03 11:10:06;;;;;;;7.20;4.60;;;5.10;38.10;;;;;;5069810;28;39619;-80
2020/12/03 11:12:36;;;;;;;18.10;7.10;;;5.20;37.20;;;;;;5082810;28;37827;-81
2020/12/03 11:15:05;;;;;;;10.50;5.50;;;5.40;37.90;;;;;;5071378;28;38529;-82
2020/12/03 11:18:04;;;;;;;7.77;5.40;;;5.40;37.70;;;;;;5072672;28;36237;-82
2020/12/03 11:20:34;;;;;;;7.57;4.50;;;5.50;37.80;;;;;;5071114;28;40555;-81
2020/12/03 11:23:09;;;;;;;6.80;5.23;;;5.70;37.60;;;;;;5069059;28;39108;-82
2020/12/03 11:25:37;;;;;;;6.90;4.87;;;5.70;37.60;;;;;;5059942;28;37189;-81
2020/12/03 11:28:12;;;;;;;7.07;5.10;;;5.50;37.40;;;;;;5069030;28;37389;-81
2020/12/03 11:30:39;;;;;;;7.67;5.47;;;5.10;37.90;;;;;;5057780;28;39834;-81
2020/12/03 11:33:06;;;;;;;9.70;5.60;;;5.20;38.40;;;;;;5069617;28;38994;-81
2020/12/03 11:35:35;;;;;;;6.50;5.17;;;5.30;38.30;;;;;;5063064;28;36750;-82
2020/12/03 11:38:04;;;;;;;6.17;4.30;;;5.40;38.40;;;;;;5076571;28;36118;-83
2020/12/03 11:40:37;;;;;;;9.30;5.37;;;5.40;38.30;;;;;;5083580;28;38571;-82
2020/12/03 11:43:21;;;;;;;6.40;4.57;;;5.50;38.50;;;;;;5060824;28;37638;-84
2020/12/03 11:46:16;;;;;;;7.53;4.40;;;5.60;38.80;;;;;;5057824;28;36622;-83
2020/12/03 11:48:51;;;;;;;9.17;4.03;;;5.50;38.20;;;;;;5073655;28;37558;-83
2020/12/03 11:51:29;;;;;;;8.20;4.57;;;5.40;39.10;;;;;;5063851;28;39992;-84
2020/12/03 11:54:01;;;;;;;4.70;4.07;;;5.50;38.80;;;;;;5066820;28;39785;-83
2020/12/03 11:56:30;;;;;;;6.70;4.60;;;5.50;38.50;;;;;;5063496;28;38011;-81
2020/12/03 11:59:17;;;;;;;9.23;6.40;;;5.50;38.70;;;;;;5057862;28;38019;-88
2020/12/03 12:01:52;;;;;;;9.90;5.40;;;5.60;38.40;;;;;;5067388;28;40371;-80
2020/12/03 12:04:22;;;;;;;8.37;5.33;;;5.60;38.80;;;;;;5068056;28;38159;-83
2020/12/03 12:07:03;;;;;;;9.60;4.33;;;5.50;38.30;;;;;;5067987;28;38206;-83
2020/12/03 12:09:34;;;;;;;10.17;4.50;;;5.40;38.40;;;;;;5069832;28;35899;-82
2020/12/03 12:12:01;;;;;;;5.83;3.70;;;5.30;38.90;;;;;;5065177;28;40702;-83
2020/12/03 12:14:29;;;;;;;5.87;3.93;;;5.20;39.00;;;;;;5058054;28;37163;-82
2020/12/03 12:16:56;;;;;;;5.77;4.47;;;5.30;39.20;;;;;;5064825;28;38230;-83
2020/12/03 12:19:25;;;;;;;6.07;4.30;;;5.20;39.20;;;;;;5071284;28;37508;-84
2020/12/03 12:21:54;;;;;;;4.50;3.70;;;5.40;39.40;;;;;;5068894;28;38552;-83
2020/12/03 12:24:21;;;;;;;6.80;4.83;;;5.50;38.80;;;;;;5066265;28;37556;-82
2020/12/03 12:26:49;;;;;;;5.67;4.00;;;5.60;38.90;;;;;;5066377;28;37952;-83
2020/12/03 12:29:16;;;;;;;7.70;5.40;;;5.70;38.40;;;;;;5067695;28;37142;-83
2020/12/03 12:31:45;;;;;;;8.40;6.27;;;5.50;39.00;;;;;;5070617;28;40359;-83
2020/12/03 12:34:14;;;;;;;8.93;6.63;;;5.30;39.50;;;;;;5070621;28;38335;-83
2020/12/03 12:36:41;;;;;;;10.27;6.40;;;5.10;40.40;;;;;;5075935;28;38898;-83
2020/12/03 12:39:08;;;;;;;12.20;6.03;;;4.90;41.30;;;;;;5066623;28;36087;-82
2020/12/03 12:41:35;;;;;;;6.80;5.33;;;4.90;41.40;;;;;;5064774;28;39675;-84
2020/12/03 12:44:03;;;;;;;9.60;5.90;;;4.90;41.90;;;;;;5070516;28;39353;-83
2020/12/03 12:46:30;;;;;;;8.50;5.53;;;4.90;42.00;;;;;;5069553;28;38071;-82
2020/12/03 12:48:57;;;;;;;9.53;6.17;;;4.80;42.20;;;;;;5073009;28;37119;-82
2020/12/03 12:51:24;;;;;;;11.17;6.13;;;4.70;42.50;;;;;;5074560;28;39880;-82
2020/12/03 12:53:51;;;;;;;11.30;6.83;;;4.70;42.80;;;;;;5073374;28;38303;-83
2020/12/03 12:56:21;;;;;;;12.70;6.60;;;4.70;42.90;;;;;;5073075;28;37134;-82
2020/12/03 12:58:48;;;;;;;11.80;6.97;;;4.70;43.10;;;;;;5072113;28;38045;-83
2020/12/03 13:01:15;;;;;;;9.97;6.53;;;4.80;43.50;;;;;;5065460;28;40356;-83
2020/12/03 13:03:47;;;;;;;12.23;6.57;;;5.00;43.20;;;;;;5064186;28;38975;-83
2020/12/03 13:06:15;;;;;;;9.50;6.73;;;4.90;42.90;;;;;;5067692;28;38414;-81
2020/12/03 13:08:42;;;;;;;9.93;7.40;;;5.00;43.20;;;;;;5075050;28;36157;-83
2020/12/03 13:11:10;;;;;;;15.20;7.57;;;4.90;43.40;;;;;;5071377;28;38720;-84
2020/12/03 13:13:38;;;;;;;12.73;7.47;;;4.80;44.10;;;;;;5069337;28;38466;-84
2020/12/03 13:16:05;;;;;;;11.27;6.80;;;4.80;43.80;;;;;;5075667;28;38177;-83
2020/12/03 13:18:39;;;;;;;14.87;7.93;;;4.80;43.90;;;;;;5061842;28;37842;-83
2020/12/03 13:21:09;;;;;;;12.17;7.73;;;4.90;43.80;;;;;;5072262;28;39455;-82